| time (UTC) | temp C | wind direction | speed KPH | gust KPH | rain 1hr cm | rain 24hr cm | rain mn cm | humidity % | barometer mb |
| 20260502152008 | 11 | 246 | 12.9 | 24.1 | 0.00 | 0.00 | 0.00 | 43 | 1018.3 |
| 20260502151502 | 11 | 243 | 16.1 | 24.1 | 0.00 | 0.00 | 0.00 | 43 | 1018.3 |
| 20260502151002 | 11 | 213 | 11.3 | 22.5 | 0.00 | 0.00 | 0.00 | 42 | 1018.2 |
| 20260502150506 | 10 | 223 | 16.1 | 22.5 | 0.00 | 0.00 | 0.00 | 45 | 1018.3 |
| 20260502130507 | 5 | 257 | 6.4 | 14.5 | 0.00 | 0.00 | 0.00 | 63 | 1019.2 |
| 20260502123503 | 1 | 282 | 3.2 | 3.2 | 0.00 | 0.00 | 0.00 | 72 | 1019.2 |
| 20260502123012 | 1 | 293 | 1.6 | 3.2 | 0.00 | 0.00 | 0.00 | 73 | 1019.1 |
| 20260502122506 | 1 | 279 | 1.6 | 3.2 | 0.00 | 0.00 | 0.00 | 74 | 1019.2 |
| 20260502122003 | 1 | 283 | 0.0 | 3.2 | 0.00 | 0.00 | 0.00 | 75 | 1019.2 |
| 20260502121512 | 0 | 283 | 1.6 | 3.2 | 0.00 | 0.00 | 0.00 | 73 | 1019.2 |
| 20260502121005 | 0 | 307 | 0.0 | 1.6 | 0.00 | 0.00 | 0.00 | 72 | 1019.1 |
| 20260502120505 | 0 | 307 | 0.0 | 1.6 | 0.00 | 0.00 | 0.00 | 73 | 1019.2 |
| 20260502115507 | 0 | 307 | 0.0 | 0.0 | 0.00 | 0.00 | 0.00 | 72 | 1019.1 |
| 20260502115003 | 0 | 307 | 0.0 | 0.0 | 0.00 | 0.00 | 0.00 | 72 | 1019.2 |
| 20260502114515 | 0 | 307 | 0.0 | 0.0 | 0.00 | 0.00 | 0.00 | 72 | 1019.2 |
| 20260502114008 | 0 | 309 | 0.0 | 3.2 | 0.00 | 0.00 | 0.00 | 72 | 1019.2 |
| 20260502113506 | 0 | 309 | 0.0 | 3.2 | 0.00 | 0.00 | 0.00 | 72 | 1019.1 |
| 20260502113014 | 0 | 309 | 1.6 | 1.6 | 0.00 | 0.00 | 0.00 | 72 | 1019.1 |
| 20260502112506 | 0 | 309 | 0.0 | 3.2 | 0.00 | 0.00 | 0.00 | 72 | 1019.1 |
| 20260502112004 | 0 | 309 | 1.6 | 3.2 | 0.00 | 0.00 | 0.00 | 72 | 1019.0 |
| 20260502111515 | 0 | 315 | 1.6 | 3.2 | 0.00 | 0.00 | 0.00 | 72 | 1019.0 |
| 20260502111005 | 0 | 315 | 1.6 | 3.2 | 0.00 | 0.00 | 0.00 | 72 | 1019.1 |
| 20260502110502 | 0 | 315 | 3.2 | 3.2 | 0.00 | 0.00 | 0.00 | 73 | 1019.1 |
| 20260502110017 | 0 | 315 | 3.2 | 3.2 | 0.00 | 0.00 | 0.00 | 74 | 1019.1 |
| 20260502105514 | 0 | 315 | 1.6 | 3.2 | 0.00 | 0.00 | 0.00 | 74 | 1019.1 |
| 20260502105006 | 0 | 315 | 3.2 | 3.2 | 0.00 | 0.00 | 0.00 | 75 | 1019.2 |
| 20260502104520 | 0 | 324 | 1.6 | 3.2 | 0.00 | 0.00 | 0.00 | 75 | 1019.1 |
| 20260502104009 | 0 | 324 | 1.6 | 3.2 | 0.00 | 0.00 | 0.00 | 75 | 1019.0 |
| 20260502103502 | 0 | 325 | 1.6 | 3.2 | 0.00 | 0.00 | 0.00 | 75 | 1019.1 |
| 20260502103018 | 0 | 324 | 1.6 | 3.2 | 0.00 | 0.00 | 0.00 | 75 | 1019.1 |
| 20260502102509 | 0 | 325 | 1.6 | 3.2 | 0.00 | 0.00 | 0.00 | 75 | 1019.2 |
| 20260502102004 | 0 | 320 | 1.6 | 3.2 | 0.00 | 0.00 | 0.00 | 75 | 1019.2 |
| 20260502101520 | 0 | 311 | 3.2 | 3.2 | 0.00 | 0.00 | 0.00 | 76 | 1019.2 |
| 20260502101008 | 0 | 313 | 3.2 | 3.2 | 0.00 | 0.00 | 0.00 | 77 | 1019.2 |
| 20260502100505 | 0 | 319 | 1.6 | 3.2 | 0.00 | 0.00 | 0.00 | 76 | 1019.2 |
| 20260502091524 | -1 | 335 | 1.6 | 3.2 | 0.00 | 0.00 | 0.00 | 81 | 1018.9 |
| 20260502091011 | -1 | 335 | 0.0 | 4.8 | 0.00 | 0.00 | 0.00 | 82 | 1018.9 |
| 20260502090505 | -1 | 335 | 1.6 | 4.8 | 0.00 | 0.00 | 0.00 | 82 | 1018.9 |
| 20260502071506 | 0 | 293 | 3.2 | 3.2 | 0.00 | 0.00 | 0.00 | 77 | 1019.1 |
| 20260502071003 | 0 | 275 | 0.0 | 1.6 | 0.00 | 0.00 | 0.00 | 77 | 1019.2 |
| 20260502070505 | 0 | 275 | 0.0 | 0.0 | 0.00 | 0.00 | 0.00 | 77 | 1019.3 |
| 20260502070016 | 0 | 275 | 0.0 | 0.0 | 0.00 | 0.00 | 0.00 | 78 | 1019.2 |
| 20260502065504 | 0 | 275 | 0.0 | 0.0 | 0.00 | 0.00 | 0.00 | 78 | 1019.2 |
| 20260502065003 | 0 | 275 | 0.0 | 0.0 | 0.00 | 0.00 | 0.00 | 78 | 1019.2 |
| 20260502064510 | 0 | 275 | 0.0 | 0.0 | 0.00 | 0.00 | 0.00 | 77 | 1019.3 |
| 20260502064004 | 0 | 275 | 0.0 | 0.0 | 0.00 | 0.00 | 0.00 | 77 | 1019.3 |
| 20260502063503 | 0 | 275 | 0.0 | 0.0 | 0.00 | 0.00 | 0.00 | 76 | 1019.3 |
| 20260502063012 | 0 | 275 | 0.0 | 0.0 | 0.00 | 0.00 | 0.00 | 75 | 1019.4 |
| 20260502062503 | 0 | 275 | 0.0 | 0.0 | 0.00 | 0.00 | 0.00 | 73 | 1019.4 |
| 20260502062004 | 0 | 275 | 0.0 | 0.0 | 0.00 | 0.00 | 0.00 | 72 | 1019.4 |
| 20260502061511 | 0 | 275 | 0.0 | 0.0 | 0.00 | 0.00 | 0.00 | 70 | 1019.4 |
| 20260502061003 | 1 | 275 | 0.0 | 3.2 | 0.00 | 0.00 | 0.00 | 69 | 1019.4 |
| 20260502060502 | 1 | 275 | 0.0 | 3.2 | 0.00 | 0.00 | 0.00 | 69 | 1019.3 |
| 20260502060013 | 1 | 275 | 1.6 | 3.2 | 0.00 | 0.00 | 0.00 | 69 | 1019.2 |
| 20260502055502 | 1 | 275 | 3.2 | 3.2 | 0.00 | 0.00 | 0.00 | 69 | 1019.2 |
| 20260502055003 | 1 | 288 | 1.6 | 3.2 | 0.00 | 0.00 | 0.00 | 68 | 1019.2 |
| 20260502054513 | 1 | 288 | 0.0 | 3.2 | 0.00 | 0.00 | 0.00 | 68 | 1019.3 |
| 20260502054003 | 1 | 288 | 0.0 | 3.2 | 0.00 | 0.00 | 0.00 | 69 | 1019.3 |
| 20260502053503 | 1 | 288 | 1.6 | 3.2 | 0.00 | 0.00 | 0.00 | 69 | 1019.4 |
| 20260502053013 | 1 | 288 | 1.6 | 3.2 | 0.00 | 0.00 | 0.00 | 70 | 1019.4 |
| 20260502052503 | 1 | 288 | 0.0 | 3.2 | 0.00 | 0.00 | 0.00 | 70 | 1019.4 |
| 20260502052006 | 1 | 288 | 0.0 | 0.0 | 0.00 | 0.00 | 0.00 | 70 | 1019.3 |
| 20260502051521 | 1 | 288 | 0.0 | 3.2 | 0.00 | 0.00 | 0.00 | 71 | 1019.4 |
| 20260502051002 | 0 | 288 | 0.0 | 3.2 | 0.00 | 0.00 | 0.00 | 73 | 1019.4 |
| 20260502050504 | 1 | 288 | 3.2 | 3.2 | 0.00 | 0.00 | 0.00 | 74 | 1019.3 |
| 20260502050017 | 1 | 292 | 3.2 | 3.2 | 0.00 | 0.00 | 0.00 | 73 | 1019.2 |
| 20260502045503 | 1 | 360 | 0.0 | 0.0 | 0.00 | 0.00 | 0.00 | 72 | 1019.2 |
| 20260502045003 | 1 | 360 | 0.0 | 1.6 | 0.00 | 0.00 | 0.00 | 72 | 1019.2 |
| 20260502044515 | 1 | 360 | 0.0 | 3.2 | 0.00 | 0.00 | 0.00 | 72 | 1019.2 |
| 20260502044002 | 1 | 360 | 1.6 | 3.2 | 0.00 | 0.00 | 0.00 | 70 | 1019.1 |
| 20260502043503 | 2 | 360 | 0.0 | 1.6 | 0.00 | 0.00 | 0.00 | 70 | 1019.1 |
| 20260502043013 | 2 | 360 | 0.0 | 3.2 | 0.00 | 0.00 | 0.00 | 69 | 1019.1 |
| 20260502042503 | 2 | 360 | 1.6 | 3.2 | 0.00 | 0.00 | 0.00 | 69 | 1019.2 |
| 20260502042003 | 2 | 360 | 0.0 | 3.2 | 0.00 | 0.00 | 0.00 | 67 | 1019.1 |
| 20260502041521 | 2 | 360 | 1.6 | 1.6 | 0.00 | 0.00 | 0.00 | 66 | 1019.1 |
| 20260502041004 | 3 | 360 | 1.6 | 1.6 | 0.00 | 0.00 | 0.00 | 65 | 1019.1 |
| 20260502040504 | 3 | 360 | 1.6 | 1.6 | 0.00 | 0.00 | 0.00 | 64 | 1019.1 |
| 20260502040016 | 3 | 360 | 1.6 | 1.6 | 0.00 | 0.00 | 0.00 | 64 | 1019.0 |
| 20260502035505 | 3 | 12 | 1.6 | 1.6 | 0.00 | 0.00 | 0.00 | 63 | 1018.9 |
| 20260502035006 | 3 | 12 | 1.6 | 3.2 | 0.00 | 0.00 | 0.00 | 63 | 1018.9 |
| 20260502034518 | 3 | 12 | 0.0 | 3.2 | 0.00 | 0.00 | 0.00 | 63 | 1018.9 |
| 20260502034004 | 3 | 12 | 0.0 | 3.2 | 0.00 | 0.00 | 0.00 | 63 | 1019.0 |
| 20260502033504 | 3 | 12 | 0.0 | 1.6 | 0.00 | 0.00 | 0.00 | 63 | 1018.9 |
| 20260502033022 | 3 | 12 | 0.0 | 3.2 | 0.00 | 0.00 | 0.00 | 64 | 1019.0 |
| 20260502032503 | 3 | 12 | 1.6 | 4.8 | 0.00 | 0.00 | 0.00 | 61 | 1019.0 |
| 20260502032005 | 3 | 9 | 3.2 | 4.8 | 0.00 | 0.00 | 0.00 | 62 | 1019.0 |
| 20260502031518 | 3 | 10 | 3.2 | 4.8 | 0.00 | 0.00 | 0.00 | 62 | 1019.1 |
| 20260502031004 | 3 | 15 | 3.2 | 4.8 | 0.00 | 0.00 | 0.00 | 63 | 1019.1 |
| 20260502030507 | 3 | 29 | 3.2 | 6.4 | 0.00 | 0.00 | 0.00 | 61 | 1019.0 |
| 20260502030018 | 3 | 33 | 4.8 | 8.0 | 0.00 | 0.00 | 0.00 | 60 | 1019.0 |
| 20260502025508 | 3 | 34 | 4.8 | 8.0 | 0.00 | 0.00 | 0.00 | 60 | 1018.9 |
| 20260502025006 | 4 | 29 | 4.8 | 9.7 | 0.00 | 0.00 | 0.00 | 60 | 1019.0 |
| 20260502024526 | 4 | 29 | 8.0 | 9.7 | 0.00 | 0.00 | 0.00 | 59 | 1018.9 |
| 20260502024003 | 4 | 39 | 6.4 | 9.7 | 0.00 | 0.00 | 0.00 | 58 | 1018.8 |
| 20260502023507 | 5 | 33 | 8.0 | 9.7 | 0.00 | 0.00 | 0.00 | 57 | 1018.8 |
| 20260502023022 | 5 | 34 | 8.0 | 9.7 | 0.00 | 0.00 | 0.00 | 56 | 1018.8 |
| 20260502022502 | 5 | 34 | 8.0 | 9.7 | 0.00 | 0.00 | 0.00 | 55 | 1018.7 |
| 20260502022008 | 5 | 37 | 8.0 | 9.7 | 0.00 | 0.00 | 0.00 | 55 | 1018.7 |
| 20260502021525 | 6 | 34 | 8.0 | 9.7 | 0.00 | 0.00 | 0.00 | 54 | 1018.6 |
| 20260502021007 | 6 | 39 | 9.7 | 9.7 | 0.00 | 0.00 | 0.00 | 53 | 1018.6 |
| 20260502020509 | 6 | 32 | 9.7 | 9.7 | 0.00 | 0.00 | 0.00 | 52 | 1018.5 |
| 20260502020022 | 6 | 32 | 8.0 | 9.7 | 0.00 | 0.00 | 0.00 | 52 | 1018.4 |
| 20260502015507 | 6 | 38 | 6.4 | 12.9 | 0.00 | 0.00 | 0.00 | 52 | 1018.2 |
| 20260502015009 | 6 | 32 | 9.7 | 12.9 | 0.00 | 0.00 | 0.00 | 49 | 1018.2 |
| 20260502014510 | 7 | 34 | 8.0 | 14.5 | 0.00 | 0.00 | 0.00 | 48 | 1018.2 |
| 20260502014009 | 7 | 27 | 9.7 | 14.5 | 0.00 | 0.00 | 0.00 | 46 | 1018.1 |
| 20260502013505 | 7 | 22 | 9.7 | 12.9 | 0.00 | 0.00 | 0.00 | 46 | 1018.1 |
| 20260502013011 | 7 | 360 | 8.0 | 12.9 | 0.00 | 0.00 | 0.00 | 46 | 1018.1 |
| 20260502012505 | 7 | 21 | 9.7 | 16.1 | 0.00 | 0.00 | 0.00 | 45 | 1018.1 |
| 20260502012012 | 8 | 13 | 11.3 | 17.7 | 0.00 | 0.00 | 0.00 | 45 | 1018.1 |
| 20260502011509 | 8 | 16 | 14.5 | 17.7 | 0.00 | 0.00 | 0.00 | 45 | 1018.1 |
| 20260502011004 | 8 | 26 | 12.9 | 17.7 | 0.00 | 0.00 | 0.00 | 44 | 1018.1 |
| 20260502010511 | 8 | 360 | 14.5 | 17.7 | 0.00 | 0.00 | 0.00 | 44 | 1018.1 |
| 20260502010020 | 8 | 10 | 14.5 | 17.7 | 0.00 | 0.00 | 0.00 | 44 | 1018.1 |
| 20260502005506 | 8 | 10 | 11.3 | 19.3 | 0.00 | 0.00 | 0.00 | 43 | 1018.1 |
| 20260502005010 | 8 | 12 | 14.5 | 19.3 | 0.00 | 0.00 | 0.00 | 43 | 1018.1 |
| 20260502004513 | 9 | 360 | 16.1 | 19.3 | 0.00 | 0.00 | 0.00 | 42 | 1018.0 |
| 20260502004015 | 9 | 350 | 16.1 | 25.7 | 0.00 | 0.00 | 0.00 | 42 | 1018.0 |
| 20260502003508 | 9 | 360 | 14.5 | 25.7 | 0.00 | 0.00 | 0.00 | 41 | 1018.0 |
| 20260502003011 | 9 | 351 | 19.3 | 24.1 | 0.00 | 0.00 | 0.00 | 41 | 1017.9 |
| 20260502002508 | 9 | 350 | 14.5 | 19.3 | 0.00 | 0.00 | 0.00 | 41 | 1017.9 |
| 20260502002011 | 9 | 360 | 11.3 | 25.7 | 0.00 | 0.00 | 0.00 | 41 | 1018.0 |
| 20260502001515 | 9 | 351 | 14.5 | 27.4 | 0.00 | 0.00 | 0.00 | 39 | 1018.0 |
| 20260502001003 | 10 | 360 | 22.5 | 27.4 | 0.00 | 0.00 | 0.00 | 39 | 1018.0 |
| 20260502000502 | 10 | 348 | 12.9 | 19.3 | 0.00 | 0.00 | 0.00 | 40 | 1018.0 |
| 20260502000018 | 9 | 28 | 14.5 | 25.7 | 0.00 | 0.00 | 0.00 | 40 | 1018.1 |
| 20260501235502 | 9 | 360 | 19.3 | 27.4 | 0.00 | 0.00 | 0.00 | 39 | 1018.1 |
| 20260501235007 | 10 | 32 | 19.3 | 30.6 | 0.00 | 0.00 | 0.00 | 39 | 1018.1 |
| 20260501234517 | 10 | 21 | 25.7 | 30.6 | 0.00 | 0.00 | 0.00 | 38 | 1017.9 |
| 20260501234003 | 10 | 26 | 20.9 | 27.4 | 0.00 | 0.00 | 0.00 | 37 | 1017.8 |
| 20260501233505 | 10 | 30 | 22.5 | 27.4 | 0.00 | 0.00 | 0.00 | 37 | 1017.7 |
| 20260501233019 | 10 | 9 | 22.5 | 27.4 | 0.00 | 0.00 | 0.00 | 36 | 1017.7 |
| 20260501232502 | 10 | 30 | 19.3 | 30.6 | 0.00 | 0.00 | 0.00 | 37 | 1017.7 |
| 20260501232005 | 10 | 31 | 24.1 | 30.6 | 0.00 | 0.00 | 0.00 | 37 | 1017.7 |
| 20260501231520 | 10 | 32 | 24.1 | 32.2 | 0.00 | 0.00 | 0.00 | 37 | 1017.7 |
| 20260501231003 | 10 | 28 | 22.5 | 32.2 | 0.00 | 0.00 | 0.00 | 36 | 1017.7 |
| 20260501230502 | 10 | 24 | 25.7 | 32.2 | 0.00 | 0.00 | 0.00 | 37 | 1017.7 |
| 20260501230004 | 10 | 18 | 20.9 | 24.1 | 0.00 | 0.00 | 0.00 | 38 | 1017.7 |
| 20260501225504 | 10 | 19 | 16.1 | 27.4 | 0.00 | 0.00 | 0.00 | 41 | 1017.7 |
| 20260501225003 | 10 | 348 | 14.5 | 33.8 | 0.00 | 0.00 | 0.00 | 40 | 1017.7 |
| 20260501224504 | 10 | 13 | 20.9 | 33.8 | 0.00 | 0.00 | 0.00 | 40 | 1017.8 |
| 20260501224003 | 10 | 11 | 20.9 | 27.4 | 0.00 | 0.00 | 0.00 | 38 | 1017.7 |
| 20260501223503 | 10 | 360 | 16.1 | 29.0 | 0.00 | 0.00 | 0.00 | 38 | 1017.8 |
| 20260501223003 | 10 | 360 | 20.9 | 30.6 | 0.00 | 0.00 | 0.00 | 39 | 1017.8 |
| 20260501222506 | 10 | 360 | 19.3 | 30.6 | 0.00 | 0.00 | 0.00 | 38 | 1017.9 |
| 20260501222009 | 10 | 24 | 22.5 | 27.4 | 0.00 | 0.00 | 0.00 | 37 | 1017.8 |
| 20260501221510 | 10 | 349 | 11.3 | 25.7 | 0.00 | 0.00 | 0.00 | 37 | 1017.9 |
| 20260501221007 | 10 | 11 | 17.7 | 32.2 | 0.00 | 0.00 | 0.00 | 37 | 1018.0 |
| 20260501220508 | 11 | 29 | 24.1 | 32.2 | 0.00 | 0.00 | 0.00 | 38 | 1017.8 |
| 20260501220012 | 11 | 350 | 11.3 | 27.4 | 0.00 | 0.00 | 0.00 | 36 | 1017.9 |
| 20260501215506 | 10 | 44 | 14.5 | 29.0 | 0.00 | 0.00 | 0.00 | 36 | 1017.8 |
| 20260501215007 | 10 | 32 | 14.5 | 29.0 | 0.00 | 0.00 | 0.00 | 39 | 1017.9 |
| 20260501214505 | 10 | 360 | 19.3 | 29.0 | 0.00 | 0.00 | 0.00 | 40 | 1017.9 |
| 20260501214002 | 10 | 11 | 25.7 | 35.4 | 0.00 | 0.00 | 0.00 | 40 | 1017.9 |
| 20260501213506 | 11 | 40 | 24.1 | 35.4 | 0.00 | 0.00 | 0.00 | 39 | 1017.9 |
| 20260501213005 | 11 | 28 | 20.9 | 29.0 | 0.00 | 0.00 | 0.00 | 39 | 1017.9 |
| 20260501212505 | 11 | 360 | 22.5 | 29.0 | 0.00 | 0.00 | 0.00 | 38 | 1017.9 |
| 20260501212007 | 11 | 11 | 17.7 | 24.1 | 0.00 | 0.00 | 0.00 | 37 | 1017.9 |
| 20260501211507 | 10 | 360 | 16.1 | 25.7 | 0.00 | 0.00 | 0.00 | 38 | 1017.9 |
| 20260501211002 | 10 | 25 | 17.7 | 29.0 | 0.00 | 0.00 | 0.00 | 38 | 1018.0 |
| 20260501210508 | 10 | 346 | 20.9 | 29.0 | 0.00 | 0.00 | 0.00 | 41 | 1018.0 |
| 20260501210005 | 10 | 29 | 17.7 | 29.0 | 0.00 | 0.00 | 0.00 | 42 | 1017.8 |
| 20260501205508 | 10 | 19 | 12.9 | 30.6 | 0.00 | 0.00 | 0.00 | 41 | 1017.7 |
| 20260501205012 | 10 | 42 | 20.9 | 30.6 | 0.00 | 0.00 | 0.00 | 40 | 1017.7 |
| 20260501204509 | 10 | 360 | 11.3 | 24.1 | 0.00 | 0.00 | 0.00 | 41 | 1017.7 |
| 20260501204006 | 9 | 26 | 14.5 | 29.0 | 0.00 | 0.00 | 0.00 | 40 | 1017.8 |
| 20260501203509 | 10 | 15 | 20.9 | 29.0 | 0.00 | 0.00 | 0.00 | 39 | 1017.8 |
| 20260501203005 | 10 | 27 | 20.9 | 29.0 | 0.00 | 0.00 | 0.00 | 39 | 1017.8 |
| 20260501202505 | 11 | 17 | 16.1 | 25.7 | 0.00 | 0.00 | 0.00 | 39 | 1017.8 |
| 20260501202007 | 10 | 311 | 12.9 | 24.1 | 0.00 | 0.00 | 0.00 | 40 | 1017.9 |
| 20260501201507 | 11 | 56 | 12.9 | 24.1 | 0.00 | 0.00 | 0.00 | 37 | 1017.9 |
| 20260501201006 | 10 | 28 | 14.5 | 24.1 | 0.00 | 0.00 | 0.00 | 44 | 1018.0 |
| 20260501200504 | 9 | 32 | 11.3 | 27.4 | 0.00 | 0.00 | 0.00 | 41 | 1017.9 |
| 20260501200009 | 10 | 11 | 20.9 | 27.4 | 0.00 | 0.00 | 0.00 | 40 | 1017.9 |
| 20260501195505 | 10 | 340 | 9.7 | 25.7 | 0.00 | 0.00 | 0.00 | 42 | 1017.8 |
| 20260501195003 | 9 | 339 | 9.7 | 25.7 | 0.00 | 0.00 | 0.00 | 42 | 1017.8 |
| 20260501194513 | 9 | 360 | 17.7 | 25.7 | 0.00 | 0.00 | 0.00 | 43 | 1017.9 |
| 20260501194006 | 9 | 24 | 8.0 | 32.2 | 0.00 | 0.00 | 0.00 | 39 | 1017.9 |
| 20260501193503 | 10 | 55 | 17.7 | 32.2 | 0.00 | 0.00 | 0.00 | 38 | 1017.9 |
| 20260501193011 | 9 | 15 | 20.9 | 32.2 | 0.00 | 0.00 | 0.00 | 42 | 1017.8 |
| 20260501192508 | 10 | 350 | 19.3 | 25.7 | 0.00 | 0.00 | 0.00 | 43 | 1018.0 |
| 20260501192002 | 11 | 350 | 12.9 | 24.1 | 0.00 | 0.00 | 0.00 | 38 | 1017.9 |
| 20260501191513 | 10 | 342 | 16.1 | 24.1 | 0.00 | 0.00 | 0.00 | 43 | 1018.0 |
| 20260501191011 | 9 | 72 | 8.0 | 20.9 | 0.00 | 0.00 | 0.00 | 44 | 1018.0 |
| 20260501190505 | 8 | 24 | 14.5 | 29.0 | 0.00 | 0.00 | 0.00 | 43 | 1018.1 |
| 20260501190030 | 8 | 350 | 20.9 | 29.0 | 0.00 | 0.00 | 0.00 | 44 | 1018.0 |
| 20260501185512 | 9 | 339 | 25.7 | 29.0 | 0.00 | 0.00 | 0.00 | 45 | 1017.9 |
| 20260501185003 | 9 | 70 | 4.8 | 20.9 | 0.00 | 0.00 | 0.00 | 43 | 1017.9 |
| 20260501184517 | 8 | 360 | 9.7 | 17.7 | 0.00 | 0.00 | 0.00 | 43 | 1017.9 |
| 20260501184009 | 9 | 336 | 11.3 | 19.3 | 0.00 | 0.00 | 0.00 | 46 | 1018.0 |
| 20260501183503 | 9 | 11 | 12.9 | 27.4 | 0.00 | 0.00 | 0.00 | 45 | 1018.0 |
| 20260501183020 | 8 | 11 | 11.3 | 30.6 | 0.00 | 0.00 | 0.00 | 43 | 1018.1 |
| 20260501182507 | 9 | 9 | 24.1 | 30.6 | 0.00 | 0.00 | 0.00 | 47 | 1018.0 |
| 20260501182004 | 8 | 23 | 12.9 | 20.9 | 0.00 | 0.00 | 0.00 | 44 | 1018.1 |
| 20260501181522 | 8 | 335 | 11.3 | 27.4 | 0.00 | 0.00 | 0.00 | 45 | 1018.2 |
| 20260501181009 | 8 | 23 | 19.3 | 27.4 | 0.00 | 0.00 | 0.00 | 45 | 1018.2 |
| 20260501180504 | 8 | 24 | 19.3 | 27.4 | 0.00 | 0.00 | 0.00 | 45 | 1018.1 |
| 20260501180027 | 8 | 13 | 19.3 | 27.4 | 0.00 | 0.00 | 0.00 | 46 | 1018.1 |
| 20260501175508 | 9 | 338 | 16.1 | 25.7 | 0.00 | 0.00 | 0.00 | 45 | 1018.0 |
| 20260501175010 | 8 | 360 | 11.3 | 25.7 | 0.00 | 0.00 | 0.00 | 48 | 1018.1 |
| 20260501174526 | 7 | 24 | 14.5 | 25.7 | 0.00 | 0.00 | 0.00 | 46 | 1018.2 |
| 20260501174011 | 8 | 360 | 19.3 | 25.7 | 0.00 | 0.00 | 0.00 | 49 | 1018.3 |
| 20260501173507 | 7 | 331 | 14.5 | 30.6 | 0.00 | 0.00 | 0.00 | 48 | 1018.3 |
| 20260501173030 | 8 | 344 | 19.3 | 30.6 | 0.00 | 0.00 | 0.00 | 48 | 1018.4 |
| 20260501172513 | 8 | 324 | 12.9 | 24.1 | 0.00 | 0.00 | 0.00 | 47 | 1018.3 |
| 20260501172004 | 7 | 344 | 16.1 | 27.4 | 0.00 | 0.00 | 0.00 | 49 | 1018.2 |
| 20260501171525 | 7 | 33 | 19.3 | 27.4 | 0.00 | 0.00 | 0.00 | 46 | 1018.1 |
| 20260501171003 | 8 | 349 | 9.7 | 29.0 | 0.00 | 0.00 | 0.00 | 48 | 1018.1 |
| 20260501170506 | 8 | 10 | 20.9 | 29.0 | 0.00 | 0.00 | 0.00 | 49 | 1018.2 |
| 20260501170023 | 8 | 360 | 17.7 | 27.4 | 0.00 | 0.00 | 0.00 | 48 | 1018.2 |
| 20260501165505 | 8 | 360 | 12.9 | 29.0 | 0.00 | 0.00 | 0.00 | 50 | 1018.2 |
| 20260501165008 | 7 | 53 | 12.9 | 29.0 | 0.00 | 0.00 | 0.00 | 49 | 1018.1 |
| 20260501164524 | 7 | 360 | 19.3 | 29.0 | 0.00 | 0.00 | 0.00 | 49 | 1018.2 |
| 20260501164006 | 8 | 334 | 22.5 | 30.6 | 0.00 | 0.00 | 0.00 | 49 | 1018.1 |
| 20260501163511 | 7 | 360 | 19.3 | 33.8 | 0.00 | 0.00 | 0.00 | 52 | 1018.0 |
| 20260501163026 | 8 | 340 | 20.9 | 33.8 | 0.00 | 0.00 | 0.00 | 51 | 1018.0 |
| 20260501162503 | 8 | 22 | 20.9 | 29.0 | 0.00 | 0.00 | 0.00 | 47 | 1018.0 |
| 20260501162012 | 8 | 19 | 20.9 | 33.8 | 0.00 | 0.00 | 0.00 | 50 | 1018.0 |
| 20260501161526 | 7 | 338 | 22.5 | 33.8 | 0.00 | 0.00 | 0.00 | 52 | 1018.0 |
| 20260501161006 | 7 | 9 | 22.5 | 29.0 | 0.00 | 0.00 | 0.00 | 49 | 1018.1 |
| 20260501160507 | 8 | 351 | 22.5 | 32.2 | 0.00 | 0.00 | 0.00 | 52 | 1017.9 |